マガダン の空港の天気 - METARとTAF

マガダン・ソコル空港 ( UHMM / GDX ) - ロシア マガダン
飛行場実況気象(Metar)
観測時間10/24 13:30 MAGT (10/24 02:30 UTC)
風向・風速北北西 3m/s
視程10km以上
天気現象
全天の4割程度の雲 雲底高度 1310m
気温-2℃
湿度46%
気圧1003hPa
METARUHMM 240230Z 34003MPS 310V020 9999 SCT043CB M02/M12 Q1003 R10/70D NOSIG RMK QFE738 R28/00000MPS
過去の天気等 Google飛行場航空写真 Wunderground天気予報

過去48時間のMETAR

飛行場予報(TAF)
発表時間: 10/24 12:50 MAGT (10/24 01:50 UTC)
予報対象時間: 24日14時 MAGT ~ 25日20時 MAGT
風向・風速北北東 3m/s 瞬間風速 8m/s
視程10km以上
全天の8割程度の積乱雲 雲底高度 910m
全天の8割程度の雲 雲底高度 2130m
24日14時 MAGT ~ 25日20時 MAGT に一時的に
視程3100m
天気現象弱いしゅう雪 もや
全天の8割程度の雲 雲底高度 340m
全天を覆う積乱雲 雲底高度 520m
TAF UHMM 240150Z 2403/2509 02003G08MPS 9999 BKN030CB BKN070
TEMPO 2403/2509 3100 -SHSN BR BKN011 OVC017CB